sensor_id;sensor_type;location;lat;lon;timestamp;pressure;altitude;pressure_sealevel;temperature;humidity
15604;BME280;7902;49.042;9.092;2023-03-20T00:00:38;99312.13;;;14.41;61.01
15604;BME280;7902;49.042;9.092;2023-03-20T00:03:05;99307.69;;;14.42;61.56
15604;BME280;7902;49.042;9.092;2023-03-20T00:05:31;99309.94;;;14.46;61.50
15604;BME280;7902;49.042;9.092;2023-03-20T00:07:58;99313.81;;;14.42;61.51
15604;BME280;7902;49.042;9.092;2023-03-20T00:10:38;99312.59;;;14.46;61.46
15604;BME280;7902;49.042;9.092;2023-03-20T00:13:05;99310.22;;;14.43;61.12
15604;BME280;7902;49.042;9.092;2023-03-20T00:15:37;99309.09;;;14.46;61.94
15604;BME280;7902;49.042;9.092;2023-03-20T00:18:13;99314.44;;;14.56;61.26
15604;BME280;7902;49.042;9.092;2023-03-20T00:20:40;99314.78;;;14.41;61.93
15604;BME280;7902;49.042;9.092;2023-03-20T00:23:06;99317.03;;;14.46;60.60
15604;BME280;7902;49.042;9.092;2023-03-20T00:25:31;99311.28;;;14.41;61.33
15604;BME280;7902;49.042;9.092;2023-03-20T00:27:58;99315.88;;;14.39;60.95
15604;BME280;7902;49.042;9.092;2023-03-20T00:30:27;99319.38;;;14.39;60.96
15604;BME280;7902;49.042;9.092;2023-03-20T00:32:56;99324.09;;;14.36;61.02
15604;BME280;7902;49.042;9.092;2023-03-20T00:35:25;99323.31;;;14.34;61.05
15604;BME280;7902;49.042;9.092;2023-03-20T00:37:53;99322.03;;;14.28;60.97
15604;BME280;7902;49.042;9.092;2023-03-20T00:40:20;99326.06;;;14.43;61.18
15604;BME280;7902;49.042;9.092;2023-03-20T00:42:57;99328.88;;;14.52;60.50
15604;BME280;7902;49.042;9.092;2023-03-20T00:45:24;99325.84;;;14.35;61.57
15604;BME280;7902;49.042;9.092;2023-03-20T00:47:50;99334.13;;;14.42;60.78
15604;BME280;7902;49.042;9.092;2023-03-20T00:50:22;99328.81;;;14.42;60.86
15604;BME280;7902;49.042;9.092;2023-03-20T00:52:49;99333.28;;;14.41;60.78
15604;BME280;7902;49.042;9.092;2023-03-20T00:55:17;99329.94;;;14.39;61.04
15604;BME280;7902;49.042;9.092;2023-03-20T00:57:49;99323.53;;;14.42;60.98
15604;BME280;7902;49.042;9.092;2023-03-20T01:00:23;99330.91;;;14.38;60.99
15604;BME280;7902;49.042;9.092;2023-03-20T01:02:51;99331.75;;;14.39;60.71
15604;BME280;7902;49.042;9.092;2023-03-20T01:05:18;99329.94;;;14.39;61.22
15604;BME280;7902;49.042;9.092;2023-03-20T01:07:44;99334.00;;;14.43;60.80
15604;BME280;7902;49.042;9.092;2023-03-20T01:10:11;99327.66;;;14.35;61.69
15604;BME280;7902;49.042;9.092;2023-03-20T01:12:39;99334.94;;;14.42;60.70
15604;BME280;7902;49.042;9.092;2023-03-20T01:15:29;99326.94;;;14.33;60.48
15604;BME280;7902;49.042;9.092;2023-03-20T01:17:56;99329.47;;;14.34;60.62
15604;BME280;7902;49.042;9.092;2023-03-20T01:20:25;99331.63;;;14.40;60.81
15604;BME280;7902;49.042;9.092;2023-03-20T01:22:52;99320.44;;;14.37;61.36
15604;BME280;7902;49.042;9.092;2023-03-20T01:25:19;99328.50;;;14.35;61.05
15604;BME280;7902;49.042;9.092;2023-03-20T01:27:49;99324.56;;;14.30;61.20
15604;BME280;7902;49.042;9.092;2023-03-20T01:30:23;99336.47;;;14.24;61.02
15604;BME280;7902;49.042;9.092;2023-03-20T01:32:50;99326.75;;;14.25;61.70
15604;BME280;7902;49.042;9.092;2023-03-20T01:35:20;99329.13;;;14.28;61.60
15604;BME280;7902;49.042;9.092;2023-03-20T01:37:47;99338.47;;;14.32;60.78
15604;BME280;7902;49.042;9.092;2023-03-20T01:40:27;99330.09;;;14.27;61.04
15604;BME280;7902;49.042;9.092;2023-03-20T01:42:55;99335.13;;;14.30;61.13
15604;BME280;7902;49.042;9.092;2023-03-20T01:45:27;99336.47;;;14.24;61.03
15604;BME280;7902;49.042;9.092;2023-03-20T01:47:54;99342.25;;;14.18;61.20
15604;BME280;7902;49.042;9.092;2023-03-20T01:50:23;99341.09;;;14.32;60.45
15604;BME280;7902;49.042;9.092;2023-03-20T01:52:55;99341.63;;;14.26;60.37
15604;BME280;7902;49.042;9.092;2023-03-20T01:55:23;99339.56;;;14.29;61.10
15604;BME280;7902;49.042;9.092;2023-03-20T01:57:51;99343.44;;;14.25;61.07
15604;BME280;7902;49.042;9.092;2023-03-20T02:00:19;99344.50;;;14.23;60.40
15604;BME280;7902;49.042;9.092;2023-03-20T02:02:46;99351.81;;;14.30;60.15
15604;BME280;7902;49.042;9.092;2023-03-20T02:05:15;99349.22;;;14.19;61.07
15604;BME280;7902;49.042;9.092;2023-03-20T02:07:44;99355.69;;;14.26;61.05
15604;BME280;7902;49.042;9.092;2023-03-20T02:10:15;99356.44;;;14.17;61.08
15604;BME280;7902;49.042;9.092;2023-03-20T02:12:42;99353.53;;;14.20;60.76
15604;BME280;7902;49.042;9.092;2023-03-20T02:15:09;99357.59;;;14.24;60.66
15604;BME280;7902;49.042;9.092;2023-03-20T02:17:36;99358.19;;;14.28;60.42
15604;BME280;7902;49.042;9.092;2023-03-20T02:20:13;99365.41;;;14.26;59.99
15604;BME280;7902;49.042;9.092;2023-03-20T02:23:29;99359.53;;;14.22;60.99
15604;BME280;7902;49.042;9.092;2023-03-20T02:26:25;99359.28;;;14.25;60.00
15604;BME280;7902;49.042;9.092;2023-03-20T02:29:06;99357.72;;;14.23;61.03
15604;BME280;7902;49.042;9.092;2023-03-20T02:40:47;99351.28;;;14.16;60.69
15604;BME280;7902;49.042;9.092;2023-03-20T02:46:11;99352.25;;;14.15;60.59
15604;BME280;7902;49.042;9.092;2023-03-20T02:49:07;99352.50;;;14.12;60.83
15604;BME280;7902;49.042;9.092;2023-03-20T02:51:54;99353.09;;;14.15;60.74
15604;BME280;7902;49.042;9.092;2023-03-20T02:57:02;99358.03;;;14.08;60.97
15604;BME280;7902;49.042;9.092;2023-03-20T02:59:40;99351.78;;;14.10;60.54
15604;BME280;7902;49.042;9.092;2023-03-20T03:02:15;99357.06;;;14.10;60.90
15604;BME280;7902;49.042;9.092;2023-03-20T03:04:50;99365.00;;;14.10;60.93
15604;BME280;7902;49.042;9.092;2023-03-20T03:07:21;99366.41;;;14.14;60.80
15604;BME280;7902;49.042;9.092;2023-03-20T03:09:54;99362.34;;;14.10;61.52
15604;BME280;7902;49.042;9.092;2023-03-20T03:12:25;99366.09;;;14.07;61.17
15604;BME280;7902;49.042;9.092;2023-03-20T03:14:56;99367.63;;;14.10;60.99
15604;BME280;7902;49.042;9.092;2023-03-20T03:17:28;99369.78;;;14.16;61.01
15604;BME280;7902;49.042;9.092;2023-03-20T03:19:59;99372.88;;;14.21;61.02
15604;BME280;7902;49.042;9.092;2023-03-20T03:22:27;99372.78;;;14.11;61.05
15604;BME280;7902;49.042;9.092;2023-03-20T03:24:53;99369.50;;;14.19;60.85
15604;BME280;7902;49.042;9.092;2023-03-20T03:27:36;99372.53;;;14.14;60.96
15604;BME280;7902;49.042;9.092;2023-03-20T03:30:09;99380.34;;;14.16;61.25
15604;BME280;7902;49.042;9.092;2023-03-20T03:35:35;99368.50;;;13.99;61.28
15604;BME280;7902;49.042;9.092;2023-03-20T03:38:09;99364.06;;;13.99;61.45
15604;BME280;7902;49.042;9.092;2023-03-20T03:41:06;99376.19;;;14.02;61.25
15604;BME280;7902;49.042;9.092;2023-03-20T03:43:50;99371.41;;;13.96;61.47
15604;BME280;7902;49.042;9.092;2023-03-20T03:46:26;99376.59;;;13.86;62.10
15604;BME280;7902;49.042;9.092;2023-03-20T03:48:59;99368.69;;;13.86;61.39
15604;BME280;7902;49.042;9.092;2023-03-20T03:51:28;99378.88;;;13.91;62.10
15604;BME280;7902;49.042;9.092;2023-03-20T03:54:03;99378.84;;;14.02;61.65
15604;BME280;7902;49.042;9.092;2023-03-20T03:56:32;99383.78;;;13.95;61.56
15604;BME280;7902;49.042;9.092;2023-03-20T03:59:04;99384.59;;;13.96;61.25
15604;BME280;7902;49.042;9.092;2023-03-20T04:01:33;99381.00;;;13.97;60.94
15604;BME280;7902;49.042;9.092;2023-03-20T04:04:03;99379.91;;;13.99;61.78
15604;BME280;7902;49.042;9.092;2023-03-20T04:06:31;99386.28;;;13.97;61.06
15604;BME280;7902;49.042;9.092;2023-03-20T04:08:57;99386.03;;;14.00;61.22
15604;BME280;7902;49.042;9.092;2023-03-20T04:11:25;99378.56;;;14.05;60.80
15604;BME280;7902;49.042;9.092;2023-03-20T04:13:53;99375.72;;;13.97;61.39
15604;BME280;7902;49.042;9.092;2023-03-20T04:16:22;99375.34;;;14.01;61.28
15604;BME280;7902;49.042;9.092;2023-03-20T04:18:49;99374.78;;;13.98;61.11
15604;BME280;7902;49.042;9.092;2023-03-20T04:21:15;99380.56;;;13.92;61.44
15604;BME280;7902;49.042;9.092;2023-03-20T04:23:41;99372.72;;;14.01;61.15
15604;BME280;7902;49.042;9.092;2023-03-20T04:26:08;99374.88;;;13.96;61.10
15604;BME280;7902;49.042;9.092;2023-03-20T04:28:34;99375.00;;;13.95;61.62
15604;BME280;7902;49.042;9.092;2023-03-20T04:31:00;99367.81;;;13.97;61.55
15604;BME280;7902;49.042;9.092;2023-03-20T04:33:27;99374.53;;;13.90;61.21
15604;BME280;7902;49.042;9.092;2023-03-20T04:35:53;99381.00;;;13.97;61.66
15604;BME280;7902;49.042;9.092;2023-03-20T04:38:20;99382.22;;;13.93;61.83
15604;BME280;7902;49.042;9.092;2023-03-20T04:40:48;99381.50;;;13.91;61.75
15604;BME280;7902;49.042;9.092;2023-03-20T04:43:14;99390.16;;;13.93;61.59
15604;BME280;7902;49.042;9.092;2023-03-20T04:45:40;99383.69;;;13.86;62.03
15604;BME280;7902;49.042;9.092;2023-03-20T04:48:06;99387.06;;;13.77;62.62
15604;BME280;7902;49.042;9.092;2023-03-20T04:50:32;99398.69;;;13.85;61.81
15604;BME280;7902;49.042;9.092;2023-03-20T04:52:58;99405.06;;;13.83;61.81
15604;BME280;7902;49.042;9.092;2023-03-20T04:55:24;99400.63;;;13.83;61.61
15604;BME280;7902;49.042;9.092;2023-03-20T04:57:50;99397.34;;;13.91;61.95
15604;BME280;7902;49.042;9.092;2023-03-20T05:00:16;99401.09;;;13.88;62.04
15604;BME280;7902;49.042;9.092;2023-03-20T05:02:43;99403.00;;;13.86;61.20
15604;BME280;7902;49.042;9.092;2023-03-20T05:05:09;99408.38;;;13.85;62.16
15604;BME280;7902;49.042;9.092;2023-03-20T05:07:35;99414.03;;;13.80;62.06
15604;BME280;7902;49.042;9.092;2023-03-20T05:10:03;99412.50;;;13.78;61.86
15604;BME280;7902;49.042;9.092;2023-03-20T05:12:29;99410.34;;;13.83;62.06
15604;BME280;7902;49.042;9.092;2023-03-20T05:14:55;99426.75;;;13.86;61.73
15604;BME280;7902;49.042;9.092;2023-03-20T05:17:22;99414.88;;;13.92;61.42
15604;BME280;7902;49.042;9.092;2023-03-20T05:19:48;99417.63;;;13.90;61.64
15604;BME280;7902;49.042;9.092;2023-03-20T05:22:18;99414.88;;;13.92;61.27
15604;BME280;7902;49.042;9.092;2023-03-20T05:24:44;99412.34;;;13.90;62.08
15604;BME280;7902;49.042;9.092;2023-03-20T05:27:10;99409.91;;;13.98;61.15
15604;BME280;7902;49.042;9.092;2023-03-20T05:29:36;99410.91;;;13.97;61.80
15604;BME280;7902;49.042;9.092;2023-03-20T05:32:02;99415.72;;;13.92;62.25
15604;BME280;7902;49.042;9.092;2023-03-20T05:34:28;99414.59;;;13.95;61.92
15604;BME280;7902;49.042;9.092;2023-03-20T05:36:54;99411.28;;;13.93;61.19
15604;BME280;7902;49.042;9.092;2023-03-20T05:39:20;99417.03;;;13.98;60.78
15604;BME280;7902;49.042;9.092;2023-03-20T05:41:47;99423.75;;;13.91;62.12
15604;BME280;7902;49.042;9.092;2023-03-20T05:44:13;99421.84;;;13.93;61.52
15604;BME280;7902;49.042;9.092;2023-03-20T05:46:39;99432.28;;;13.83;62.45
15604;BME280;7902;49.042;9.092;2023-03-20T05:49:05;99432.69;;;13.68;62.88
15604;BME280;7902;49.042;9.092;2023-03-20T05:51:31;99429.94;;;13.69;62.84
15604;BME280;7902;49.042;9.092;2023-03-20T05:53:57;99438.06;;;13.77;63.01
15604;BME280;7902;49.042;9.092;2023-03-20T05:56:22;99437.91;;;13.90;62.09
15604;BME280;7902;49.042;9.092;2023-03-20T05:58:48;99439.94;;;13.86;61.85
15604;BME280;7902;49.042;9.092;2023-03-20T06:01:14;99438.41;;;13.84;62.10
15604;BME280;7902;49.042;9.092;2023-03-20T06:03:42;99446.44;;;13.82;62.04
15604;BME280;7902;49.042;9.092;2023-03-20T06:06:08;99444.28;;;13.87;62.29
15604;BME280;7902;49.042;9.092;2023-03-20T06:08:34;99444.16;;;13.89;61.94
15604;BME280;7902;49.042;9.092;2023-03-20T06:11:02;99444.97;;;13.89;62.40
15604;BME280;7902;49.042;9.092;2023-03-20T06:13:28;99445.13;;;13.88;61.95
15604;BME280;7902;49.042;9.092;2023-03-20T06:15:54;99440.16;;;13.94;61.58
15604;BME280;7902;49.042;9.092;2023-03-20T06:18:21;99436.94;;;13.91;61.70
15604;BME280;7902;49.042;9.092;2023-03-20T06:20:51;99439.31;;;13.94;62.14
15604;BME280;7902;49.042;9.092;2023-03-20T06:23:18;99437.16;;;13.99;62.24
15604;BME280;7902;49.042;9.092;2023-03-20T06:25:44;99438.59;;;14.03;61.39
15604;BME280;7902;49.042;9.092;2023-03-20T06:28:10;99443.03;;;14.02;62.29
15604;BME280;7902;49.042;9.092;2023-03-20T06:30:36;99441.47;;;14.00;61.88
15604;BME280;7902;49.042;9.092;2023-03-20T06:33:03;99441.09;;;14.04;62.22
15604;BME280;7902;49.042;9.092;2023-03-20T06:35:30;99449.59;;;14.19;61.44
15604;BME280;7902;49.042;9.092;2023-03-20T06:37:57;99448.16;;;14.15;62.02
15604;BME280;7902;49.042;9.092;2023-03-20T06:40:23;99443.63;;;14.06;61.68
15604;BME280;7902;49.042;9.092;2023-03-20T06:42:50;99450.06;;;14.13;61.86
15604;BME280;7902;49.042;9.092;2023-03-20T06:45:16;99441.94;;;14.05;61.76
15604;BME280;7902;49.042;9.092;2023-03-20T06:47:41;99438.94;;;14.10;61.51
15604;BME280;7902;49.042;9.092;2023-03-20T06:50:08;99441.94;;;14.05;61.51
15604;BME280;7902;49.042;9.092;2023-03-20T06:52:34;99459.22;;;14.09;62.31
15604;BME280;7902;49.042;9.092;2023-03-20T06:55:00;99456.94;;;14.04;62.16
15604;BME280;7902;49.042;9.092;2023-03-20T06:57:26;99464.13;;;14.14;62.18
15604;BME280;7902;49.042;9.092;2023-03-20T06:59:52;99470.28;;;14.03;62.82
15604;BME280;7902;49.042;9.092;2023-03-20T07:02:18;99472.03;;;14.14;62.19
15604;BME280;7902;49.042;9.092;2023-03-20T07:04:44;99480.91;;;14.24;61.95
15604;BME280;7902;49.042;9.092;2023-03-20T07:07:11;99486.28;;;14.22;61.61
15604;BME280;7902;49.042;9.092;2023-03-20T07:09:37;99486.19;;;14.24;61.82
15604;BME280;7902;49.042;9.092;2023-03-20T07:12:03;99492.31;;;14.24;62.27
15604;BME280;7902;49.042;9.092;2023-03-20T07:14:29;99488.91;;;14.33;61.91
15604;BME280;7902;49.042;9.092;2023-03-20T07:16:55;99484.13;;;14.27;61.54
15604;BME280;7902;49.042;9.092;2023-03-20T07:19:21;99480.25;;;14.31;61.73
15604;BME280;7902;49.042;9.092;2023-03-20T07:21:47;99471.06;;;14.26;62.02
15604;BME280;7902;49.042;9.092;2023-03-20T07:24:13;99480.53;;;14.28;61.22
15604;BME280;7902;49.042;9.092;2023-03-20T07:26:39;99487.50;;;14.29;61.77
15604;BME280;7902;49.042;9.092;2023-03-20T07:29:06;99485.53;;;14.31;61.22
15604;BME280;7902;49.042;9.092;2023-03-20T07:31:32;99485.44;;;14.33;62.03
15604;BME280;7902;49.042;9.092;2023-03-20T07:33:58;99494.19;;;14.33;61.78
15604;BME280;7902;49.042;9.092;2023-03-20T07:36:24;99491.78;;;14.41;61.15
15604;BME280;7902;49.042;9.092;2023-03-20T07:38:50;99489.88;;;14.43;60.89
15604;BME280;7902;49.042;9.092;2023-03-20T07:41:16;99496.97;;;14.43;61.23
15604;BME280;7902;49.042;9.092;2023-03-20T07:43:41;99489.16;;;14.41;61.58
15604;BME280;7902;49.042;9.092;2023-03-20T07:46:08;99489.41;;;14.38;61.72
15604;BME280;7902;49.042;9.092;2023-03-20T07:48:34;99483.53;;;14.24;61.55
15604;BME280;7902;49.042;9.092;2023-03-20T07:51:01;99483.16;;;14.39;62.32
15604;BME280;7902;49.042;9.092;2023-03-20T07:53:27;99481.50;;;14.38;62.32
15604;BME280;7902;49.042;9.092;2023-03-20T07:55:53;99486.88;;;14.37;62.48
15604;BME280;7902;49.042;9.092;2023-03-20T07:58:19;99480.75;;;14.36;61.86
15604;BME280;7902;49.042;9.092;2023-03-20T08:00:45;99484.59;;;14.43;61.61
15604;BME280;7902;49.042;9.092;2023-03-20T08:03:11;99488.25;;;14.20;62.55
15604;BME280;7902;49.042;9.092;2023-03-20T08:05:36;99491.44;;;14.35;61.76
15604;BME280;7902;49.042;9.092;2023-03-20T08:08:03;99499.13;;;14.27;61.47
15604;BME280;7902;49.042;9.092;2023-03-20T08:10:29;99490.38;;;14.37;62.01
15604;BME280;7902;49.042;9.092;2023-03-20T08:12:55;99494.81;;;14.37;61.23
15604;BME280;7902;49.042;9.092;2023-03-20T08:15:21;99495.66;;;14.37;61.30
15604;BME280;7902;49.042;9.092;2023-03-20T08:17:47;99496.25;;;14.30;62.21
15604;BME280;7902;49.042;9.092;2023-03-20T08:20:14;99490.38;;;14.37;61.87
15604;BME280;7902;49.042;9.092;2023-03-20T08:22:40;99487.88;;;14.36;62.13
15604;BME280;7902;49.042;9.092;2023-03-20T08:25:08;99489.13;;;14.53;62.07
15604;BME280;7902;49.042;9.092;2023-03-20T08:27:34;99492.59;;;14.53;62.20
15604;BME280;7902;49.042;9.092;2023-03-20T08:30:02;99485.06;;;14.48;61.41
15604;BME280;7902;49.042;9.092;2023-03-20T08:32:28;99483.00;;;14.52;61.22
15604;BME280;7902;49.042;9.092;2023-03-20T08:34:54;99487.44;;;14.52;61.20
15604;BME280;7902;49.042;9.092;2023-03-20T08:37:20;99496.09;;;14.54;61.97
15604;BME280;7902;49.042;9.092;2023-03-20T08:39:46;99486.13;;;14.46;62.28
15604;BME280;7902;49.042;9.092;2023-03-20T08:42:13;99489.78;;;14.66;61.64
15604;BME280;7902;49.042;9.092;2023-03-20T08:44:39;99491.38;;;14.57;61.70
15604;BME280;7902;49.042;9.092;2023-03-20T08:47:05;99492.34;;;14.56;61.37
15604;BME280;7902;49.042;9.092;2023-03-20T08:49:33;99492.31;;;14.67;61.32
15604;BME280;7902;49.042;9.092;2023-03-20T08:51:59;99484.50;;;14.66;60.94
15604;BME280;7902;49.042;9.092;2023-03-20T08:54:26;99493.75;;;14.60;62.23
15604;BME280;7902;49.042;9.092;2023-03-20T08:56:51;99496.28;;;14.62;60.33
15604;BME280;7902;49.042;9.092;2023-03-20T08:59:17;99500.22;;;14.67;60.98
15604;BME280;7902;49.042;9.092;2023-03-20T09:01:44;99494.44;;;14.73;61.62
15604;BME280;7902;49.042;9.092;2023-03-20T09:04:12;99501.25;;;14.76;61.05
15604;BME280;7902;49.042;9.092;2023-03-20T09:06:39;99506.84;;;14.62;61.13
15604;BME280;7902;49.042;9.092;2023-03-20T09:09:06;99499.84;;;14.72;61.55
15604;BME280;7902;49.042;9.092;2023-03-20T09:11:33;99499.50;;;14.65;61.31
15604;BME280;7902;49.042;9.092;2023-03-20T09:13:59;99498.75;;;14.74;60.85
15604;BME280;7902;49.042;9.092;2023-03-20T09:16:25;99497.00;;;14.64;61.05
15604;BME280;7902;49.042;9.092;2023-03-20T09:18:51;99499.84;;;14.72;60.24
15604;BME280;7902;49.042;9.092;2023-03-20T09:21:17;99501.00;;;14.79;60.96
15604;BME280;7902;49.042;9.092;2023-03-20T09:23:43;99510.53;;;14.70;60.62
15604;BME280;7902;49.042;9.092;2023-03-20T09:26:09;99506.88;;;14.82;60.88
15604;BME280;7902;49.042;9.092;2023-03-20T09:28:35;99507.50;;;14.75;60.11
15604;BME280;7902;49.042;9.092;2023-03-20T09:31:01;99505.22;;;14.81;61.12
15604;BME280;7902;49.042;9.092;2023-03-20T09:33:27;99504.75;;;14.76;60.61
15604;BME280;7902;49.042;9.092;2023-03-20T09:35:53;99505.72;;;14.75;60.89
15604;BME280;7902;49.042;9.092;2023-03-20T09:38:19;99499.47;;;14.76;60.57
15604;BME280;7902;49.042;9.092;2023-03-20T09:40:58;99514.03;;;14.71;60.64
15604;BME280;7902;49.042;9.092;2023-03-20T09:43:42;99510.22;;;14.84;60.99
15604;BME280;7902;49.042;9.092;2023-03-20T09:51:53;99519.72;;;14.87;60.85
15604;BME280;7902;49.042;9.092;2023-03-20T09:54:24;99530.06;;;14.79;61.17
15604;BME280;7902;49.042;9.092;2023-03-20T09:56:52;99541.03;;;14.74;60.02
15604;BME280;7902;49.042;9.092;2023-03-20T09:59:20;99531.53;;;14.83;60.36
15604;BME280;7902;49.042;9.092;2023-03-20T10:01:49;99536.59;;;14.75;60.35
15604;BME280;7902;49.042;9.092;2023-03-20T10:04:16;99521.38;;;14.88;60.13
15604;BME280;7902;49.042;9.092;2023-03-20T10:06:42;99527.19;;;14.82;60.62
15604;BME280;7902;49.042;9.092;2023-03-20T10:09:22;99526.94;;;14.85;60.12
15604;BME280;7902;49.042;9.092;2023-03-20T10:14:57;99532.53;;;14.71;59.33
15604;BME280;7902;49.042;9.092;2023-03-20T10:17:43;99535.44;;;14.68;59.41
15604;BME280;7902;49.042;9.092;2023-03-20T10:20:25;99534.09;;;14.73;59.86
15604;BME280;7902;49.042;9.092;2023-03-20T10:23:06;99533.47;;;14.70;59.29
15604;BME280;7902;49.042;9.092;2023-03-20T10:25:42;99540.56;;;14.69;59.11
15604;BME280;7902;49.042;9.092;2023-03-20T10:31:36;99539.19;;;14.86;59.35
15604;BME280;7902;49.042;9.092;2023-03-20T10:34:40;99523.59;;;14.83;59.56
15604;BME280;7902;49.042;9.092;2023-03-20T10:42:38;99512.16;;;15.03;59.40
15604;BME280;7902;49.042;9.092;2023-03-20T10:45:26;99526.50;;;15.01;58.79
15604;BME280;7902;49.042;9.092;2023-03-20T10:47:56;99519.13;;;15.04;58.36
15604;BME280;7902;49.042;9.092;2023-03-20T10:50:32;99515.78;;;15.02;59.22
15604;BME280;7902;49.042;9.092;2023-03-20T10:53:01;99521.66;;;15.06;58.98
15604;BME280;7902;49.042;9.092;2023-03-20T10:55:36;99514.97;;;15.02;59.12
15604;BME280;7902;49.042;9.092;2023-03-20T10:58:18;99516.31;;;14.96;58.62
15604;BME280;7902;49.042;9.092;2023-03-20T11:00:47;99518.13;;;14.96;58.37
15604;BME280;7902;49.042;9.092;2023-03-20T11:03:23;99517.47;;;15.03;59.14
15604;BME280;7902;49.042;9.092;2023-03-20T11:05:55;99509.41;;;15.05;57.67
15604;BME280;7902;49.042;9.092;2023-03-20T11:08:30;99506.50;;;15.08;58.80
15604;BME280;7902;49.042;9.092;2023-03-20T11:11:00;99511.78;;;15.08;58.23
15604;BME280;7902;49.042;9.092;2023-03-20T11:13:32;99509.59;;;15.13;58.42
15604;BME280;7902;49.042;9.092;2023-03-20T11:16:20;99512.81;;;15.16;57.67
15604;BME280;7902;49.042;9.092;2023-03-20T11:18:48;99506.69;;;15.16;57.17
15604;BME280;7902;49.042;9.092;2023-03-20T11:21:18;99506.25;;;15.11;57.95
15604;BME280;7902;49.042;9.092;2023-03-20T11:23:44;99506.88;;;15.24;57.25
15604;BME280;7902;49.042;9.092;2023-03-20T11:26:13;99508.56;;;15.04;57.47
15604;BME280;7902;49.042;9.092;2023-03-20T11:28:52;99506.31;;;15.00;57.35
15604;BME280;7902;49.042;9.092;2023-03-20T11:31:39;99508.09;;;14.99;57.84
15604;BME280;7902;49.042;9.092;2023-03-20T11:36:32;99509.78;;;15.00;57.42
15604;BME280;7902;49.042;9.092;2023-03-20T11:39:12;99505.41;;;15.10;57.21
15604;BME280;7902;49.042;9.092;2023-03-20T11:41:47;99503.78;;;14.98;56.65
15604;BME280;7902;49.042;9.092;2023-03-20T11:44:28;99505.91;;;15.04;57.08
15604;BME280;7902;49.042;9.092;2023-03-20T11:47:05;99508.75;;;15.12;56.34
15604;BME280;7902;49.042;9.092;2023-03-20T11:49:53;99509.53;;;15.03;56.64
15604;BME280;7902;49.042;9.092;2023-03-20T11:52:23;99505.19;;;15.23;57.04
15604;BME280;7902;49.042;9.092;2023-03-20T11:54:52;99502.94;;;15.18;57.46
15604;BME280;7902;49.042;9.092;2023-03-20T11:57:37;99495.50;;;15.12;56.91
15604;BME280;7902;49.042;9.092;2023-03-20T12:02:39;99497.59;;;15.29;56.98
15604;BME280;7902;49.042;9.092;2023-03-20T12:05:34;99481.25;;;15.24;56.58
15604;BME280;7902;49.042;9.092;2023-03-20T12:08:23;99491.06;;;15.33;57.11
15604;BME280;7902;49.042;9.092;2023-03-20T12:10:58;99478.22;;;15.29;56.59
15604;BME280;7902;49.042;9.092;2023-03-20T12:13:29;99478.41;;;15.37;56.67
15604;BME280;7902;49.042;9.092;2023-03-20T12:16:03;99471.53;;;15.25;57.01
15604;BME280;7902;49.042;9.092;2023-03-20T12:18:35;99465.56;;;15.32;57.14
15604;BME280;7902;49.042;9.092;2023-03-20T12:21:09;99472.09;;;15.28;56.83
15604;BME280;7902;49.042;9.092;2023-03-20T12:23:59;99459.53;;;15.30;56.22
15604;BME280;7902;49.042;9.092;2023-03-20T12:26:34;99462.88;;;15.23;55.62
15604;BME280;7902;49.042;9.092;2023-03-20T12:29:06;99466.03;;;15.47;56.39
15604;BME280;7902;49.042;9.092;2023-03-20T12:31:41;99452.94;;;15.46;56.13
15604;BME280;7902;49.042;9.092;2023-03-20T12:37:00;99446.63;;;15.58;55.17
15604;BME280;7902;49.042;9.092;2023-03-20T12:39:36;99442.88;;;15.70;55.42
15604;BME280;7902;49.042;9.092;2023-03-20T12:47:56;99443.00;;;15.68;55.64
15604;BME280;7902;49.042;9.092;2023-03-20T12:50:40;99438.88;;;15.85;54.75
15604;BME280;7902;49.042;9.092;2023-03-20T12:53:20;99437.50;;;15.81;55.56
15604;BME280;7902;49.042;9.092;2023-03-20T12:58:38;99429.84;;;15.97;53.96
15604;BME280;7902;49.042;9.092;2023-03-20T13:14:40;99409.38;;;16.38;52.75
15604;BME280;7902;49.042;9.092;2023-03-20T13:22:55;99406.84;;;16.46;52.72
15604;BME280;7902;49.042;9.092;2023-03-20T13:28:23;99405.91;;;16.28;52.77
15604;BME280;7902;49.042;9.092;2023-03-20T13:31:24;99403.38;;;16.36;53.32
15604;BME280;7902;49.042;9.092;2023-03-20T13:39:17;99389.56;;;16.42;54.19
15604;BME280;7902;49.042;9.092;2023-03-20T13:41:47;99388.72;;;16.51;53.16
15604;BME280;7902;49.042;9.092;2023-03-20T13:44:16;99388.41;;;16.54;52.08
15604;BME280;7902;49.042;9.092;2023-03-20T13:46:59;99384.41;;;16.40;51.83
15604;BME280;7902;49.042;9.092;2023-03-20T13:49:36;99381.31;;;16.45;51.91
15604;BME280;7902;49.042;9.092;2023-03-20T13:52:15;99383.84;;;16.46;53.47
15604;BME280;7902;49.042;9.092;2023-03-20T13:57:40;99382.72;;;16.39;54.07
15604;BME280;7902;49.042;9.092;2023-03-20T14:05:48;99380.63;;;16.52;52.88
15604;BME280;7902;49.042;9.092;2023-03-20T14:08:21;99369.34;;;16.41;53.38
15604;BME280;7902;49.042;9.092;2023-03-20T14:10:54;99366.25;;;16.55;52.35
15604;BME280;7902;49.042;9.092;2023-03-20T14:13:22;99360.81;;;16.47;52.08
15604;BME280;7902;49.042;9.092;2023-03-20T14:15:55;99368.75;;;16.56;52.78
15604;BME280;7902;49.042;9.092;2023-03-20T14:18:24;99366.53;;;16.52;52.43
15604;BME280;7902;49.042;9.092;2023-03-20T14:20:58;99362.88;;;16.53;52.61
15604;BME280;7902;49.042;9.092;2023-03-20T14:26:00;99356.34;;;16.57;51.75
15604;BME280;7902;49.042;9.092;2023-03-20T14:28:29;99364.72;;;16.52;51.75
15604;BME280;7902;49.042;9.092;2023-03-20T14:31:24;99366.69;;;16.60;52.34
15604;BME280;7902;49.042;9.092;2023-03-20T14:34:21;99369.22;;;16.33;51.74
15604;BME280;7902;49.042;9.092;2023-03-20T14:36:59;99366.16;;;16.28;51.00
15604;BME280;7902;49.042;9.092;2023-03-20T14:50:21;99351.75;;;16.30;52.02
15604;BME280;7902;49.042;9.092;2023-03-20T14:52:58;99351.91;;;16.29;50.63
15604;BME280;7902;49.042;9.092;2023-03-20T14:55:32;99350.66;;;16.23;51.20
15604;BME280;7902;49.042;9.092;2023-03-20T14:58:04;99350.38;;;16.36;50.45
15604;BME280;7902;49.042;9.092;2023-03-20T15:00:49;99353.03;;;16.26;50.69
15604;BME280;7902;49.042;9.092;2023-03-20T15:03:16;99358.44;;;16.24;50.64
15604;BME280;7902;49.042;9.092;2023-03-20T15:05:42;99344.41;;;16.24;50.52
15604;BME280;7902;49.042;9.092;2023-03-20T15:08:14;99349.13;;;16.20;51.48